Terminal Aerodrome Forecast
Issued by NWS

Home | Current Version | Previous Version | Text Only | Print | Product List | Glossary On
Versions: 1 2 3 4 5 6 7 8 9 10 11 12 13 14 15 16 17 18 19 20 21 22 23 24 25 26
000
FTUS46 KOTX 232338
TAFPUW
TAF
KPUW 232338Z 2400/2424 25007KT P6SM VCSH SCT090 BKN120 OVC150
     FM240300 VRB03KT P6SM VCSH BKN100 OVC150
     FM240700 VRB04KT P6SM -TSRA BKN070CB OVC100
     FM241100 22008KT P6SM BKN070 BKN100
     FM241900 25012G18KT P6SM SCT070 SCT120=

USA.gov is the U.S. government's official web portal to all federal, state and local government web resources and services.